createdAt,value
2023-05-08T00:00:55.822Z,16.43
2023-05-08T00:01:55.844Z,16.66
2023-05-08T00:02:55.908Z,16.69
2023-05-08T00:03:56.084Z,16.76
2023-05-08T00:04:56.015Z,16.88
2023-05-08T00:05:55.980Z,16.95
2023-05-08T00:06:55.917Z,17.07
2023-05-08T00:07:55.950Z,16.98
2023-05-08T00:08:56.045Z,16.90
2023-05-08T00:09:56.046Z,16.69
2023-05-08T00:10:56.154Z,16.75
2023-05-08T00:11:56.245Z,16.68
2023-05-08T00:12:56.224Z,16.45
2023-05-08T00:13:56.263Z,16.71
2023-05-08T00:14:56.343Z,16.55
2023-05-08T00:15:56.405Z,16.59
2023-05-08T00:16:56.447Z,16.41
2023-05-08T00:17:56.512Z,16.43
2023-05-08T00:18:56.514Z,16.24
2023-05-08T00:19:56.527Z,16.13
2023-05-08T00:20:57.150Z,16.13
2023-05-08T00:21:56.661Z,16.45
2023-05-08T00:22:56.642Z,16.57
2023-05-08T00:23:56.706Z,16.35
2023-05-08T00:24:56.716Z,16.48
2023-05-08T00:25:56.829Z,16.41
2023-05-08T00:26:56.847Z,16.34
2023-05-08T00:27:56.884Z,16.20
2023-05-08T00:28:56.995Z,16.06
2023-05-08T00:29:57.123Z,16.27
2023-05-08T00:30:57.050Z,15.98
2023-05-08T00:31:57.134Z,16.01
2023-05-08T00:32:57.223Z,15.89
2023-05-08T00:33:57.134Z,16.16
2023-05-08T00:34:57.249Z,16.41
2023-05-08T00:35:57.294Z,16.51
2023-05-08T00:36:57.294Z,16.51
2023-05-08T00:37:57.362Z,16.57
2023-05-08T00:38:57.341Z,16.74
2023-05-08T00:39:57.433Z,16.90
2023-05-08T00:40:57.434Z,16.82
2023-05-08T00:41:57.478Z,16.71
2023-05-08T00:42:57.518Z,16.69
2023-05-08T00:43:57.540Z,16.78
2023-05-08T00:44:57.596Z,16.78
2023-05-08T00:45:57.626Z,16.89
2023-05-08T00:46:57.636Z,17.07
2023-05-08T00:47:57.685Z,16.80
2023-05-08T00:48:57.689Z,16.54
2023-05-08T00:49:57.709Z,16.82
2023-05-08T00:50:57.683Z,16.88
2023-05-08T00:51:57.720Z,16.80
2023-05-08T00:52:57.710Z,16.92
2023-05-08T00:53:57.795Z,16.90
2023-05-08T00:54:57.936Z,16.89
2023-05-08T00:55:57.879Z,16.68
2023-05-08T00:56:57.996Z,16.72
2023-05-08T00:57:57.957Z,16.72
2023-05-08T00:58:58.025Z,16.47
2023-05-08T00:59:58.063Z,16.55
2023-05-08T01:00:58.064Z,16.62
2023-05-08T01:01:58.141Z,16.74
2023-05-08T01:02:58.157Z,16.96
2023-05-08T01:03:58.181Z,16.98
2023-05-08T01:04:58.287Z,17.09
2023-05-08T01:06:00.225Z,17.20
2023-05-08T01:06:58.275Z,17.29
2023-05-08T01:07:58.304Z,17.19
2023-05-08T01:08:58.317Z,17.34
2023-05-08T01:09:58.320Z,17.34
2023-05-08T01:10:58.392Z,17.57
2023-05-08T01:11:58.436Z,17.67
2023-05-08T01:12:58.488Z,17.43
2023-05-08T01:13:58.558Z,17.49
2023-05-08T01:14:58.527Z,17.30
2023-05-08T01:15:59.172Z,17.46
2023-05-08T01:16:58.617Z,17.61
2023-05-08T01:17:58.636Z,17.16
2023-05-08T01:18:58.598Z,17.49
2023-05-08T01:19:58.664Z,17.49
2023-05-08T01:20:58.674Z,17.58
2023-05-08T01:21:58.712Z,17.63
2023-05-08T01:22:58.736Z,17.76
2023-05-08T01:23:58.775Z,17.71
2023-05-08T01:24:58.809Z,17.37
2023-05-08T01:25:58.897Z,17.58
2023-05-08T01:26:58.914Z,17.60
2023-05-08T01:27:58.847Z,17.64
2023-05-08T01:28:58.918Z,17.64
2023-05-08T01:29:58.922Z,17.80
2023-05-08T01:30:58.944Z,17.67
2023-05-08T01:31:58.988Z,17.70
2023-05-08T01:32:59.083Z,17.53
2023-05-08T01:33:59.128Z,17.36
2023-05-08T01:34:59.120Z,17.40
2023-05-08T01:35:59.138Z,17.25
2023-05-08T01:36:59.668Z,17.19
2023-05-08T01:37:59.246Z,17.40
2023-05-08T01:38:59.259Z,17.50
2023-05-08T01:39:59.331Z,17.51
2023-05-08T01:40:59.283Z,17.58
2023-05-08T01:41:59.310Z,17.54
2023-05-08T01:42:59.373Z,17.37
2023-05-08T01:43:59.412Z,17.44
2023-05-08T01:44:59.416Z,17.49
2023-05-08T01:45:59.540Z,17.41
2023-05-08T01:46:59.534Z,17.53
2023-05-08T01:47:59.629Z,17.70
2023-05-08T01:49:00.178Z,17.78
2023-05-08T01:49:59.580Z,17.90
2023-05-08T01:50:59.570Z,18.01
2023-05-08T01:51:59.589Z,17.99
2023-05-08T01:52:59.621Z,17.98
2023-05-08T01:53:59.674Z,18.16
2023-05-08T01:54:59.707Z,18.28
2023-05-08T01:55:59.716Z,18.21
2023-05-08T01:56:59.752Z,18.13
2023-05-08T01:57:59.775Z,18.28
2023-05-08T01:58:59.782Z,18.24
2023-05-08T01:59:59.826Z,18.21
2023-05-08T02:00:59.929Z,18.31
2023-05-08T02:02:00.242Z,18.31
2023-05-08T02:02:59.916Z,18.39
2023-05-08T02:03:59.922Z,18.19
2023-05-08T02:04:59.970Z,18.29
2023-05-08T02:05:59.938Z,18.08
2023-05-08T02:07:00.011Z,18.27
2023-05-08T02:07:59.993Z,18.31
2023-05-08T02:09:00.011Z,18.15
2023-05-08T02:10:00.089Z,18.16
2023-05-08T02:11:00.064Z,18.07
2023-05-08T02:12:00.121Z,18.21
2023-05-08T02:13:00.176Z,18.19
2023-05-08T02:14:00.148Z,18.09
2023-05-08T02:15:00.145Z,17.92
2023-05-08T02:16:00.196Z,17.63
2023-05-08T02:17:01.194Z,17.49
2023-05-08T02:18:00.306Z,17.34
2023-05-08T02:19:00.267Z,17.49
2023-05-08T02:20:00.297Z,17.40
2023-05-08T02:21:00.292Z,17.51
2023-05-08T02:22:00.409Z,17.44
2023-05-08T02:23:00.332Z,17.57
2023-05-08T02:24:00.354Z,17.63
2023-05-08T02:25:00.376Z,17.63
2023-05-08T02:26:00.424Z,17.64
2023-05-08T02:27:00.473Z,17.80
2023-05-08T02:28:00.488Z,17.78
2023-05-08T02:29:00.522Z,17.88
2023-05-08T02:30:00.599Z,17.99
2023-05-08T02:31:00.575Z,17.94
2023-05-08T02:32:00.627Z,17.71
2023-05-08T02:33:01.011Z,17.68
2023-05-08T02:34:00.677Z,17.77
2023-05-08T02:35:03.500Z,17.61
2023-05-08T02:36:00.701Z,17.71
2023-05-08T02:37:00.707Z,17.51
2023-05-08T02:38:00.709Z,17.58
2023-05-08T02:39:00.698Z,17.58
2023-05-08T02:40:00.713Z,17.54
2023-05-08T02:41:00.716Z,17.61
2023-05-08T02:42:00.707Z,17.60
2023-05-08T02:43:00.681Z,17.57
2023-05-08T02:44:00.632Z,17.71
2023-05-08T02:45:00.652Z,17.74
2023-05-08T02:46:00.737Z,17.70
2023-05-08T02:47:00.655Z,17.56
2023-05-08T02:48:00.687Z,17.63
2023-05-08T02:49:00.614Z,17.53
2023-05-08T02:50:00.680Z,17.63
2023-05-08T02:51:00.620Z,17.70
2023-05-08T02:52:00.614Z,17.68
2023-05-08T02:53:00.604Z,17.74
2023-05-08T02:54:00.555Z,17.70
2023-05-08T02:55:00.723Z,17.67
2023-05-08T02:56:00.582Z,17.68
2023-05-08T02:57:00.565Z,17.57
2023-05-08T02:58:00.591Z,17.41
2023-05-08T02:59:00.660Z,17.47
2023-05-08T03:00:00.611Z,17.19
2023-05-08T03:01:00.651Z,17.29
2023-05-08T03:02:00.557Z,17.33
2023-05-08T03:03:00.595Z,17.30
2023-05-08T03:04:00.596Z,17.27
2023-05-08T03:05:00.501Z,17.23
2023-05-08T03:06:00.581Z,17.20
2023-05-08T03:07:00.530Z,17.15
2023-05-08T03:08:00.496Z,17.09
2023-05-08T03:09:00.476Z,17.02
2023-05-08T03:10:00.504Z,16.96
2023-05-08T03:11:00.467Z,17.09
2023-05-08T03:12:00.693Z,17.05
2023-05-08T03:13:00.535Z,16.78
2023-05-08T03:14:00.524Z,16.78
2023-05-08T03:15:00.559Z,16.74
2023-05-08T03:16:00.486Z,16.69
2023-05-08T03:17:00.422Z,16.71
2023-05-08T03:18:00.482Z,16.74
2023-05-08T03:19:00.408Z,16.72
2023-05-08T03:20:00.427Z,16.62
2023-05-08T03:21:00.418Z,16.75
2023-05-08T03:22:00.409Z,16.83
2023-05-08T03:23:00.376Z,16.64
2023-05-08T03:24:00.361Z,16.28
2023-05-08T03:25:00.392Z,16.31
2023-05-08T03:26:00.354Z,16.41
2023-05-08T03:27:00.350Z,16.61
2023-05-08T03:28:00.379Z,16.51
2023-05-08T03:29:00.344Z,16.44
2023-05-08T03:30:00.362Z,16.34
2023-05-08T03:31:00.356Z,16.32
2023-05-08T03:32:00.396Z,16.62
2023-05-08T03:33:00.459Z,16.54
2023-05-08T03:34:00.446Z,16.55
2023-05-08T03:35:00.435Z,16.40
2023-05-08T03:36:01.228Z,16.07
2023-05-08T03:37:00.504Z,16.28
2023-05-08T03:38:00.525Z,16.34
2023-05-08T03:39:00.483Z,16.34
2023-05-08T03:40:00.491Z,16.34
2023-05-08T03:41:00.558Z,16.40
2023-05-08T03:42:00.579Z,16.38
2023-05-08T03:43:00.559Z,16.50
2023-05-08T03:44:00.606Z,16.45
2023-05-08T03:45:00.580Z,16.28
2023-05-08T03:46:00.606Z,16.37
2023-05-08T03:47:00.705Z,16.38
2023-05-08T03:48:00.719Z,16.59
2023-05-08T03:49:00.672Z,16.51
2023-05-08T03:50:00.718Z,16.68
2023-05-08T03:51:00.744Z,16.54
2023-05-08T03:52:00.764Z,16.71
2023-05-08T03:53:00.783Z,16.61
2023-05-08T03:54:00.854Z,16.64
2023-05-08T03:55:00.875Z,16.95
2023-05-08T03:56:00.960Z,17.07
2023-05-08T03:57:00.956Z,17.27
2023-05-08T03:58:01.008Z,17.40
2023-05-08T03:59:01.075Z,17.44
2023-05-08T04:00:01.186Z,17.46
2023-05-08T04:01:01.142Z,17.46
2023-05-08T04:02:01.266Z,17.39
2023-05-08T04:03:01.262Z,17.39
2023-05-08T04:04:01.194Z,17.47
2023-05-08T04:05:01.137Z,17.54
2023-05-08T04:06:01.245Z,17.51
2023-05-08T04:07:01.215Z,17.56
2023-05-08T04:08:01.267Z,17.19
2023-05-08T04:09:01.360Z,17.25
2023-05-08T04:10:01.377Z,17.46
2023-05-08T04:11:01.436Z,17.29
2023-05-08T04:12:01.483Z,17.26
2023-05-08T04:13:01.612Z,17.17
2023-05-08T04:14:01.540Z,17.07
2023-05-08T04:15:01.642Z,17.29
2023-05-08T04:16:01.678Z,17.39
2023-05-08T04:17:01.785Z,17.26
2023-05-08T04:18:01.805Z,17.31
2023-05-08T04:19:01.785Z,17.51
2023-05-08T04:20:01.894Z,17.54
2023-05-08T04:21:01.884Z,17.60
2023-05-08T04:22:01.961Z,17.67
2023-05-08T04:23:01.966Z,17.50
2023-05-08T04:24:02.039Z,17.16
2023-05-08T04:25:02.060Z,17.54
2023-05-08T04:26:03.657Z,17.67
2023-05-08T04:27:02.042Z,17.57
2023-05-08T04:28:02.009Z,17.46
2023-05-08T04:29:02.037Z,17.66
2023-05-08T04:30:02.010Z,17.63
2023-05-08T04:31:02.005Z,17.61
2023-05-08T04:32:02.113Z,17.80
2023-05-08T04:33:02.069Z,17.57
2023-05-08T04:34:01.976Z,17.63
2023-05-08T04:35:02.249Z,17.74
2023-05-08T04:36:01.987Z,17.31
2023-05-08T04:37:02.024Z,17.33
2023-05-08T04:38:01.954Z,17.03
2023-05-08T04:39:01.958Z,17.30
2023-05-08T04:40:01.972Z,17.50
2023-05-08T04:41:01.980Z,17.47
2023-05-08T04:42:01.961Z,17.54
2023-05-08T04:43:01.933Z,17.39
2023-05-08T04:44:01.909Z,17.53
2023-05-08T04:45:01.925Z,17.61
2023-05-08T04:46:01.943Z,17.53
2023-05-08T04:47:01.973Z,17.27
2023-05-08T04:48:01.889Z,17.49
2023-05-08T04:49:01.902Z,17.51
2023-05-08T04:50:03.048Z,17.34
2023-05-08T04:51:01.871Z,17.57
2023-05-08T04:52:01.850Z,17.53
2023-05-08T04:53:01.883Z,17.67
2023-05-08T04:54:01.837Z,17.87
2023-05-08T04:55:01.843Z,17.68
2023-05-08T04:56:01.885Z,17.66
2023-05-08T04:57:01.895Z,17.67
2023-05-08T04:58:01.839Z,17.58
2023-05-08T04:59:01.823Z,17.46
2023-05-08T05:00:02.707Z,17.57
2023-05-08T05:01:01.892Z,17.54
2023-05-08T05:02:01.933Z,17.46
2023-05-08T05:03:01.860Z,17.51
2023-05-08T05:04:01.840Z,17.74
2023-05-08T05:05:01.833Z,17.54
2023-05-08T05:06:01.754Z,17.71
2023-05-08T05:07:01.762Z,17.71
2023-05-08T05:08:01.830Z,17.82
2023-05-08T05:09:01.765Z,17.80
2023-05-08T05:10:01.740Z,17.82
2023-05-08T05:11:01.740Z,17.58
2023-05-08T05:12:01.751Z,17.80
2023-05-08T05:13:01.765Z,17.82
2023-05-08T05:14:01.799Z,17.85
2023-05-08T05:15:01.769Z,17.92
2023-05-08T05:16:02.314Z,17.87
2023-05-08T05:17:01.702Z,18.02
2023-05-08T05:18:01.750Z,18.09
2023-05-08T05:19:01.743Z,18.01
2023-05-08T05:20:01.687Z,17.97
2023-05-08T05:21:01.764Z,17.61
2023-05-08T05:22:01.775Z,17.85
2023-05-08T05:23:01.806Z,17.60
2023-05-08T05:24:01.778Z,17.56
2023-05-08T05:25:02.236Z,17.70
2023-05-08T05:26:01.853Z,17.94
2023-05-08T05:27:01.997Z,17.85
2023-05-08T05:28:01.965Z,17.36
2023-05-08T05:29:02.027Z,17.58
2023-05-08T05:30:02.109Z,17.60
2023-05-08T05:31:02.860Z,17.44
2023-05-08T05:32:02.308Z,17.51
2023-05-08T05:33:02.796Z,17.46
2023-05-08T05:34:02.287Z,17.54
2023-05-08T05:35:02.241Z,17.33
2023-05-08T05:36:02.270Z,17.50
2023-05-08T05:37:02.321Z,17.47
2023-05-08T05:38:02.752Z,17.64
2023-05-08T05:39:02.459Z,17.66
2023-05-08T05:40:02.397Z,17.63
2023-05-08T05:41:02.404Z,17.81
2023-05-08T05:42:02.445Z,17.64
2023-05-08T05:43:02.565Z,17.88
2023-05-08T05:44:02.526Z,17.77
2023-05-08T05:45:02.548Z,17.88
2023-05-08T05:46:02.597Z,17.91
2023-05-08T05:47:02.648Z,18.08
2023-05-08T05:48:02.637Z,18.05
2023-05-08T05:49:02.671Z,17.85
2023-05-08T05:50:04.387Z,18.08
2023-05-08T05:51:02.764Z,18.15
2023-05-08T05:52:02.792Z,18.25
2023-05-08T05:53:02.853Z,18.28
2023-05-08T05:54:02.901Z,18.08
2023-05-08T05:55:03.291Z,18.19
2023-05-08T05:56:02.860Z,18.22
2023-05-08T05:57:02.998Z,18.19
2023-05-08T05:58:02.950Z,17.77
2023-05-08T05:59:02.973Z,17.56
2023-05-08T06:00:03.231Z,17.19
2023-05-08T06:01:03.048Z,17.16
2023-05-08T06:02:03.134Z,17.37
2023-05-08T06:03:03.936Z,17.41
2023-05-08T06:04:03.382Z,17.27
2023-05-08T06:05:03.253Z,17.27
2023-05-08T06:06:05.369Z,17.40
2023-05-08T06:07:03.281Z,17.51
2023-05-08T06:08:03.349Z,17.53
2023-05-08T06:09:03.413Z,17.27
2023-05-08T06:10:03.449Z,17.57
2023-05-08T06:11:03.522Z,17.64
2023-05-08T06:12:03.483Z,17.43
2023-05-08T06:13:03.588Z,17.46
2023-05-08T06:14:03.540Z,17.27
2023-05-08T06:15:03.560Z,17.15
2023-05-08T06:16:03.594Z,17.39
2023-05-08T06:17:03.732Z,17.40
2023-05-08T06:18:03.885Z,17.36
2023-05-08T06:19:03.768Z,17.44
2023-05-08T06:20:03.778Z,17.61
2023-05-08T06:21:03.849Z,17.56
2023-05-08T06:22:03.873Z,17.43
2023-05-08T06:23:03.906Z,17.61
2023-05-08T06:24:03.905Z,17.66
2023-05-08T06:25:03.924Z,17.60
2023-05-08T06:26:03.927Z,17.80
2023-05-08T06:27:04.021Z,17.44
2023-05-08T06:28:03.989Z,17.67
2023-05-08T06:29:04.001Z,17.74
2023-05-08T06:30:04.056Z,17.78
2023-05-08T06:31:04.110Z,17.78
2023-05-08T06:32:04.124Z,17.97
2023-05-08T06:33:04.169Z,17.80
2023-05-08T06:34:04.442Z,17.77
2023-05-08T06:35:04.233Z,17.87
2023-05-08T06:36:04.188Z,17.87
2023-05-08T06:37:04.200Z,17.74
2023-05-08T06:38:04.788Z,17.56
2023-05-08T06:39:04.248Z,17.71
2023-05-08T06:40:12.029Z,17.27
2023-05-08T06:41:05.246Z,17.20
2023-05-08T06:42:04.279Z,17.20
2023-05-08T06:43:04.242Z,17.50
2023-05-08T06:44:05.287Z,17.27
2023-05-08T06:45:04.255Z,17.16
2023-05-08T06:46:04.295Z,17.34
2023-05-08T06:47:04.215Z,17.36
2023-05-08T06:48:04.275Z,17.58
2023-05-08T06:49:04.212Z,17.31
2023-05-08T06:50:04.249Z,17.22
2023-05-08T06:51:04.184Z,17.47
2023-05-08T06:52:04.253Z,17.49
2023-05-08T06:53:04.302Z,17.40
2023-05-08T06:54:04.359Z,17.46
2023-05-08T06:55:04.274Z,17.40
2023-05-08T06:56:04.200Z,17.10
2023-05-08T06:57:04.158Z,17.41
2023-05-08T06:58:04.176Z,17.34
2023-05-08T06:59:08.606Z,17.44
2023-05-08T07:00:05.205Z,17.17
2023-05-08T07:01:04.247Z,17.46
2023-05-08T07:02:04.200Z,17.60
2023-05-08T07:03:04.308Z,17.54
2023-05-08T07:04:04.158Z,17.44
2023-05-08T07:05:04.294Z,17.43
2023-05-08T07:06:04.193Z,17.49
2023-05-08T07:07:04.139Z,17.46
2023-05-08T07:08:04.131Z,17.57
2023-05-08T07:09:04.121Z,17.54
2023-05-08T07:10:05.911Z,17.53
2023-05-08T07:11:04.106Z,17.23
2023-05-08T07:12:04.080Z,17.47
2023-05-08T07:13:04.128Z,17.39
2023-05-08T07:14:04.070Z,17.58
2023-05-08T07:15:13.807Z,17.44
2023-05-08T07:16:05.088Z,17.33
2023-05-08T07:17:04.061Z,17.58
2023-05-08T07:18:04.101Z,17.54
2023-05-08T07:19:04.034Z,17.54
2023-05-08T07:20:04.039Z,17.30
2023-05-08T07:21:03.988Z,17.31
2023-05-08T07:22:04.103Z,17.50
2023-05-08T07:23:04.022Z,17.57
2023-05-08T07:24:03.989Z,17.41
2023-05-08T07:25:03.977Z,17.36
2023-05-08T07:26:03.974Z,17.41
2023-05-08T07:27:04.005Z,17.09
2023-05-08T07:28:03.976Z,17.15
2023-05-08T07:29:03.996Z,17.34
2023-05-08T07:30:04.054Z,17.27
2023-05-08T07:31:04.056Z,17.34
2023-05-08T07:32:04.238Z,17.49
2023-05-08T07:33:04.195Z,17.26
2023-05-08T07:34:04.302Z,17.26
2023-05-08T07:35:04.249Z,16.88
2023-05-08T07:36:04.216Z,17.17
2023-05-08T07:37:04.257Z,17.43
2023-05-08T07:38:04.766Z,17.53
2023-05-08T07:39:04.311Z,17.51
2023-05-08T07:40:04.340Z,17.58
2023-05-08T07:41:04.531Z,17.56
2023-05-08T07:42:06.309Z,17.64
2023-05-08T07:43:04.755Z,17.61
2023-05-08T07:44:04.427Z,17.60
2023-05-08T07:45:05.256Z,17.44
2023-05-08T07:46:07.269Z,17.61
2023-05-08T07:47:05.282Z,17.68
2023-05-08T07:48:04.523Z,17.44
2023-05-08T07:49:05.235Z,17.49
2023-05-08T07:50:04.527Z,17.49
2023-05-08T07:51:04.530Z,17.70
2023-05-08T07:52:04.702Z,17.87
2023-05-08T07:53:04.465Z,17.36
2023-05-08T07:54:07.273Z,17.46
2023-05-08T07:55:04.830Z,17.49
2023-05-08T07:56:04.430Z,17.60
2023-05-08T07:57:04.400Z,17.23
2023-05-08T07:58:04.409Z,17.43
2023-05-08T07:59:04.449Z,17.51
2023-05-08T08:00:04.407Z,17.36
2023-05-08T08:01:04.416Z,17.49
2023-05-08T08:02:04.449Z,17.50
2023-05-08T08:03:04.458Z,17.56
2023-05-08T08:04:04.400Z,17.53
2023-05-08T08:05:04.477Z,17.29
2023-05-08T08:06:04.366Z,17.39
2023-05-08T08:07:04.320Z,17.43
2023-05-08T08:08:04.351Z,17.73
2023-05-08T08:09:04.328Z,17.97
2023-05-08T08:10:04.489Z,18.02
2023-05-08T08:11:04.296Z,18.22
2023-05-08T08:12:04.333Z,18.13
2023-05-08T08:13:04.358Z,17.77
2023-05-08T08:14:04.322Z,18.11
2023-05-08T08:15:04.309Z,18.16
2023-05-08T08:16:04.293Z,18.43
2023-05-08T08:17:04.329Z,18.58
2023-05-08T08:18:04.277Z,18.52
2023-05-08T08:19:04.821Z,18.48
2023-05-08T08:20:04.263Z,18.72
2023-05-08T08:21:04.300Z,18.55
2023-05-08T08:22:04.315Z,18.53
2023-05-08T08:23:04.212Z,18.31
2023-05-08T08:24:04.260Z,18.15
2023-05-08T08:25:04.289Z,18.41
2023-05-08T08:26:04.191Z,18.53
2023-05-08T08:27:04.192Z,18.62
2023-05-08T08:28:04.252Z,18.29
2023-05-08T08:29:04.265Z,18.58
2023-05-08T08:30:15.611Z,18.74
2023-05-08T08:31:05.205Z,18.55
2023-05-08T08:32:04.271Z,18.63
2023-05-08T08:33:04.323Z,18.73
2023-05-08T08:34:04.186Z,18.90
2023-05-08T08:35:04.137Z,18.97
2023-05-08T08:36:04.112Z,19.24
2023-05-08T08:37:04.205Z,19.03
2023-05-08T08:38:04.144Z,19.03
2023-05-08T08:39:04.129Z,18.96
2023-05-08T08:40:04.119Z,19.23
2023-05-08T08:41:04.192Z,19.25
2023-05-08T08:42:04.274Z,19.44
2023-05-08T08:43:04.770Z,19.42
2023-05-08T08:44:04.278Z,19.42
2023-05-08T08:45:04.384Z,19.64
2023-05-08T08:46:04.399Z,19.75
2023-05-08T08:47:04.414Z,19.79
2023-05-08T08:48:04.560Z,19.96
2023-05-08T08:49:04.609Z,19.96
2023-05-08T08:50:04.740Z,19.97
2023-05-08T08:51:04.535Z,20.00
2023-05-08T08:52:04.552Z,20.08
2023-05-08T08:53:04.682Z,20.09
2023-05-08T08:54:04.662Z,20.16
2023-05-08T08:55:04.616Z,20.17
2023-05-08T08:56:04.633Z,20.30
2023-05-08T08:57:04.786Z,20.32
2023-05-08T08:58:04.768Z,20.36
2023-05-08T08:59:04.706Z,20.44
2023-05-08T09:00:04.761Z,20.42
2023-05-08T09:01:04.770Z,20.51
2023-05-08T09:02:04.808Z,20.46
2023-05-08T09:03:04.940Z,20.53
2023-05-08T09:04:04.896Z,20.48
2023-05-08T09:05:04.886Z,20.58
2023-05-08T09:06:04.864Z,20.62
2023-05-08T09:07:04.882Z,20.73
2023-05-08T09:08:04.904Z,20.64
2023-05-08T09:09:04.985Z,20.67
2023-05-08T09:10:04.897Z,20.64
2023-05-08T09:11:05.309Z,20.74
2023-05-08T09:12:05.814Z,20.81
2023-05-08T09:13:05.025Z,20.73
2023-05-08T09:14:04.951Z,20.80
2023-05-08T09:15:05.065Z,20.80
2023-05-08T09:16:05.000Z,20.77
2023-05-08T09:17:04.966Z,20.94
2023-05-08T09:18:05.127Z,20.87
2023-05-08T09:19:05.105Z,20.99
2023-05-08T09:20:05.096Z,21.05
2023-05-08T09:21:05.136Z,20.84
2023-05-08T09:22:05.286Z,20.98
2023-05-08T09:23:05.265Z,21.05
2023-05-08T09:24:05.324Z,21.12
2023-05-08T09:25:05.415Z,21.15
2023-05-08T09:26:05.400Z,21.15
2023-05-08T09:27:05.451Z,21.25
2023-05-08T09:28:05.526Z,21.21
2023-05-08T09:29:05.529Z,21.35
2023-05-08T09:30:05.597Z,21.38
2023-05-08T09:31:05.631Z,21.41
2023-05-08T09:32:05.771Z,21.48
2023-05-08T09:33:05.972Z,21.55
2023-05-08T09:34:05.784Z,21.44
2023-05-08T09:35:05.882Z,21.45
2023-05-08T09:36:06.265Z,21.41
2023-05-08T09:37:06.048Z,21.48
2023-05-08T09:38:05.953Z,21.46
2023-05-08T09:39:06.058Z,21.57
2023-05-08T09:40:06.864Z,21.38
2023-05-08T09:41:06.208Z,21.50
2023-05-08T09:42:06.140Z,21.63
2023-05-08T09:43:06.398Z,21.63
2023-05-08T09:44:06.803Z,21.69
2023-05-08T09:45:06.197Z,21.76
2023-05-08T09:46:06.220Z,21.72
2023-05-08T09:47:06.206Z,21.79
2023-05-08T09:48:06.258Z,21.85
2023-05-08T09:49:06.248Z,21.97
2023-05-08T09:50:06.339Z,22.03
2023-05-08T09:51:06.415Z,22.17
2023-05-08T09:52:08.512Z,22.27
2023-05-08T09:53:06.794Z,22.16
2023-05-08T09:54:08.324Z,22.36
2023-05-08T09:55:06.756Z,22.41
2023-05-08T09:56:09.397Z,22.52
2023-05-08T09:57:06.632Z,22.57
2023-05-08T09:58:06.796Z,22.64
2023-05-08T09:59:06.663Z,22.65
2023-05-08T10:00:06.654Z,22.64
2023-05-08T10:01:06.661Z,22.65
2023-05-08T10:02:07.314Z,22.46
2023-05-08T10:03:06.660Z,22.54
2023-05-08T10:04:06.772Z,22.58
2023-05-08T10:05:06.647Z,22.64
2023-05-08T10:06:06.575Z,22.69
2023-05-08T10:07:06.556Z,22.81
2023-05-08T10:08:06.535Z,22.91
2023-05-08T10:09:06.550Z,23.02
2023-05-08T10:10:06.721Z,23.15
2023-05-08T10:11:06.581Z,23.20
2023-05-08T10:12:06.595Z,23.23
2023-05-08T10:13:06.750Z,23.32
2023-05-08T10:14:06.508Z,23.46
2023-05-08T10:15:06.504Z,23.45
2023-05-08T10:16:06.535Z,23.54
2023-05-08T10:17:06.560Z,23.63
2023-05-08T10:18:06.604Z,23.54
2023-05-08T10:19:06.459Z,23.69
2023-05-08T10:20:06.496Z,23.66
2023-05-08T10:21:06.470Z,23.63
2023-05-08T10:22:06.471Z,23.64
2023-05-08T10:23:06.436Z,23.69
2023-05-08T10:24:06.594Z,23.67
2023-05-08T10:25:06.448Z,23.83
2023-05-08T10:26:06.440Z,23.79
2023-05-08T10:27:07.888Z,23.90
2023-05-08T10:28:06.552Z,24.07
2023-05-08T10:29:06.405Z,24.20
2023-05-08T10:30:06.408Z,24.30
2023-05-08T10:31:07.357Z,24.41
2023-05-08T10:32:06.400Z,24.52
2023-05-08T10:33:06.570Z,24.66
2023-05-08T10:34:06.472Z,24.78
2023-05-08T10:35:06.454Z,24.87
2023-05-08T10:36:06.376Z,24.47
2023-05-08T10:37:06.367Z,24.76
2023-05-08T10:38:06.403Z,24.82
2023-05-08T10:39:06.359Z,24.76
2023-05-08T10:40:06.447Z,24.79
2023-05-08T10:41:06.388Z,24.73
2023-05-08T10:42:06.420Z,24.58
2023-05-08T10:43:06.419Z,24.99
2023-05-08T10:44:06.386Z,25.14
2023-05-08T10:45:06.339Z,25.37
2023-05-08T10:46:06.455Z,25.44
2023-05-08T10:47:06.428Z,25.72
2023-05-08T10:48:06.415Z,25.72
2023-05-08T10:49:06.314Z,25.22
2023-05-08T10:50:06.322Z,25.45
2023-05-08T10:51:06.346Z,25.16
2023-05-08T10:52:06.313Z,25.10
2023-05-08T10:53:06.452Z,24.86
2023-05-08T10:54:06.525Z,25.06
2023-05-08T10:55:06.480Z,25.13
2023-05-08T10:56:06.490Z,25.12
2023-05-08T10:57:06.509Z,24.96
2023-05-08T10:58:06.953Z,25.23
2023-05-08T10:59:06.654Z,25.14
2023-05-08T11:00:06.722Z,25.44
2023-05-08T11:01:07.713Z,25.37
2023-05-08T11:02:06.825Z,25.09
2023-05-08T11:03:14.158Z,25.36
2023-05-08T11:04:08.419Z,25.54
2023-05-08T11:05:06.767Z,25.47
2023-05-08T11:06:06.731Z,25.53
2023-05-08T11:07:06.799Z,25.41
2023-05-08T11:08:06.758Z,25.45
2023-05-08T11:09:06.781Z,25.78
2023-05-08T11:10:07.324Z,25.88
2023-05-08T11:11:07.317Z,25.81
2023-05-08T11:12:06.772Z,25.84
2023-05-08T11:13:07.437Z,26.01
2023-05-08T11:14:06.799Z,26.16
2023-05-08T11:15:06.908Z,26.32
2023-05-08T11:16:06.879Z,26.46
2023-05-08T11:17:06.933Z,25.60
2023-05-08T11:18:07.025Z,26.18
2023-05-08T11:19:06.955Z,26.33
2023-05-08T11:20:07.320Z,26.52
2023-05-08T11:21:07.318Z,26.57
2023-05-08T11:22:07.937Z,26.60
2023-05-08T11:23:07.032Z,26.89
2023-05-08T11:24:08.006Z,27.00
2023-05-08T11:25:07.897Z,27.10
2023-05-08T11:26:07.221Z,27.13
2023-05-08T11:27:07.180Z,27.15
2023-05-08T11:28:07.281Z,27.15
2023-05-08T11:29:07.224Z,26.73
2023-05-08T11:30:07.278Z,26.96
2023-05-08T11:31:07.352Z,27.08
2023-05-08T11:32:07.374Z,27.20
2023-05-08T11:33:07.417Z,27.23
2023-05-08T11:34:07.393Z,27.46
2023-05-08T11:35:07.425Z,27.62
2023-05-08T11:36:07.467Z,27.79
2023-05-08T11:37:07.467Z,27.92
2023-05-08T11:38:07.484Z,28.09
2023-05-08T11:39:07.493Z,28.33
2023-05-08T11:40:07.560Z,28.58
2023-05-08T11:41:07.571Z,28.79
2023-05-08T11:42:07.628Z,28.53
2023-05-08T11:43:08.437Z,28.58
2023-05-08T11:44:07.673Z,28.57
2023-05-08T11:45:07.748Z,28.48
2023-05-08T11:46:07.747Z,28.40
2023-05-08T11:47:07.932Z,28.32
2023-05-08T11:48:07.857Z,28.23
2023-05-08T11:49:07.831Z,28.20
2023-05-08T11:50:07.921Z,28.23
2023-05-08T11:51:07.892Z,28.27
2023-05-08T11:52:07.939Z,28.27
2023-05-08T11:53:08.058Z,28.44
2023-05-08T11:54:08.044Z,28.53
2023-05-08T11:55:08.015Z,28.63
2023-05-08T11:56:08.062Z,28.47
2023-05-08T11:57:08.087Z,28.37
2023-05-08T11:58:08.100Z,28.43
2023-05-08T11:59:08.202Z,28.39
2023-05-08T12:00:08.166Z,28.40
2023-05-08T12:01:08.306Z,28.36
2023-05-08T12:02:09.515Z,28.42
2023-05-08T12:03:08.381Z,28.44
2023-05-08T12:04:08.597Z,28.48
2023-05-08T12:05:08.460Z,28.53
2023-05-08T12:06:08.350Z,28.57
2023-05-08T12:07:08.452Z,28.58
2023-05-08T12:08:08.444Z,28.60
2023-05-08T12:09:08.493Z,28.64
2023-05-08T12:10:08.526Z,28.68
2023-05-08T12:11:08.567Z,28.70
2023-05-08T12:12:08.593Z,28.66
2023-05-08T12:13:08.667Z,28.68
2023-05-08T12:14:08.769Z,28.70
2023-05-08T12:15:08.668Z,28.73
2023-05-08T12:16:08.661Z,28.66
2023-05-08T12:17:08.798Z,28.64
2023-05-08T12:18:08.784Z,28.75
2023-05-08T12:19:08.768Z,28.71
2023-05-08T12:20:08.844Z,28.74
2023-05-08T12:21:08.856Z,28.66
2023-05-08T12:22:08.902Z,28.74
2023-05-08T12:23:08.894Z,28.73
2023-05-08T12:24:08.916Z,28.71
2023-05-08T12:25:09.926Z,28.67
2023-05-08T12:26:09.922Z,28.87
2023-05-08T12:27:09.107Z,29.01
2023-05-08T12:28:08.995Z,29.08
2023-05-08T12:29:09.038Z,29.14
2023-05-08T12:30:09.063Z,29.19
2023-05-08T12:31:09.200Z,29.29
2023-05-08T12:32:09.109Z,29.35
2023-05-08T12:33:09.231Z,29.29
2023-05-08T12:34:09.184Z,29.44
2023-05-08T12:35:09.194Z,29.42
2023-05-08T12:36:09.196Z,29.59
2023-05-08T12:37:09.231Z,29.69
2023-05-08T12:38:09.285Z,29.66
2023-05-08T12:39:09.301Z,29.80
2023-05-08T12:40:09.324Z,29.70
2023-05-08T12:41:09.382Z,29.81
2023-05-08T12:42:09.408Z,29.80
2023-05-08T12:43:09.459Z,29.83
2023-05-08T12:44:09.493Z,29.97
2023-05-08T12:45:09.611Z,30.14
2023-05-08T12:46:09.597Z,30.13
2023-05-08T12:47:09.610Z,30.27
2023-05-08T12:48:09.680Z,30.37
2023-05-08T12:49:09.632Z,30.51
2023-05-08T12:50:09.821Z,30.64
2023-05-08T12:51:09.808Z,30.78
2023-05-08T12:52:09.899Z,30.77
2023-05-08T12:53:09.879Z,30.88